Northlander — ZGAE — position and weather

sailwx.info

Track history (hours):
 
Tides and Currents Weather Stations Pressure Air Temp Water Temp Dewpoint Dewpoint Depression Visibility Wind Speed Wind Dir Waves Ship Positions

Northlander

Last reported at 2017-Aug-15 06:29 UTC. Time now 2017-Aug-21 04:29 UTC.
Position N 41°07' E 009°33'.

Length 38 m; draft 2.5 m.

Type: Pleasure craft. MMSI: 319078000.

Date/timePositionNaut miles runAvg speedWind from/ knotsBaromVisibWave heightAir tempDewpointWater temp
2017-Aug-15 06:29N 41°07' E 009°33'118 9.0
2017-Aug-14 17:25N 40°41' E 007°01'410.1
2017-Aug-14 17:00N 40°39' E 006°56'510.1
2017-Aug-14 16:30N 40°37' E 006°50'510.3
2017-Aug-14 16:00N 40°35' E 006°44'610.6
2017-Aug-14 15:29N 40°33' E 006°37'510.5
2017-Aug-14 15:00N 40°30' E 006°31'91 9.8
2017-Aug-14 05:43N 39°52' E 004°44'5610.2
2017-Aug-14 00:13N 39°27' E 003°38'4 9.9
2017-Aug-13 23:48N 39°26' E 003°33'3 9.7
2017-Aug-13 23:26N 39°24' E 003°29'4 9.8
2017-Aug-13 23:00N 39°22' E 003°24'5 9.9
2017-Aug-13 22:30N 39°20' E 003°18'510.0
2017-Aug-13 22:00N 39°18' E 003°12'5 9.6
2017-Aug-13 21:30N 39°16' E 003°07'4 8.9
2017-Aug-13 21:00N 39°16' E 003°01'5 9.2
2017-Aug-13 20:30N 39°20' E 002°58'1 1.3
2017-Aug-13 19:55N 39°21' E 002°59'0 0.0
2017-Aug-13 19:25N 39°21' E 002°59'0 0.0
2017-Aug-13 18:55N 39°21' E 002°59'0 0.0
2017-Aug-13 18:25N 39°21' E 002°59'0 0.0
2017-Aug-13 17:58N 39°21' E 002°59'0 0.0
2017-Aug-13 17:28N 39°21' E 002°59'0 0.0
2017-Aug-13 16:55N 39°21' E 002°59'0 0.0
2017-Aug-13 16:28N 39°21' E 002°59'0 0.0
2017-Aug-13 15:58N 39°21' E 002°59'0 0.0
2017-Aug-13 15:28N 39°21' E 002°59'0 0.0
2017-Aug-13 14:58N 39°21' E 002°59'0 0.0
2017-Aug-13 14:28N 39°21' E 002°59'0 0.0
2017-Aug-13 13:52N 39°21' E 002°59'0 0.0
2017-Aug-13 13:28N 39°21' E 002°59'0 0.1
2017-Aug-13 12:58N 39°21' E 002°59'2 5.2
2017-Aug-13 12:30N 39°21' E 002°55'1 1.5
2017-Aug-13 11:32N 39°22' E 002°54'0 0.1
2017-Aug-13 11:26N 39°22' E 002°54'0 0.0
2017-Aug-13 10:50N 39°22' E 002°54'0 0.0
2017-Aug-13 10:20N 39°22' E 002°54'0 0.0
2017-Aug-13 09:55N 39°22' E 002°54'0 0.1
2017-Aug-13 09:26N 39°22' E 002°54'0 0.0
2017-Aug-13 08:59N 39°22' E 002°54'0 0.1
2017-Aug-13 08:26N 39°22' E 002°54'0 0.0
2017-Aug-13 07:59N 39°22' E 002°54'0 0.0
2017-Aug-13 07:20N 39°22' E 002°54'0 0.0
2017-Aug-12 18:37N 39°22' E 002°54'0 0.0
2017-Aug-12 18:20N 39°22' E 002°54'0 0.0
2017-Aug-12 17:56N 39°22' E 002°54'0 0.0
2017-Aug-12 16:43N 39°22' E 002°54'0 0.0
2017-Aug-12 16:26N 39°22' E 002°54'0 0.0
2017-Aug-12 15:44N 39°22' E 002°54'0 0.0
2017-Aug-12 15:29N 39°22' E 002°54'0 0.0
2017-Aug-12 14:55N 39°22' E 002°54'0 0.0
2017-Aug-12 14:25N 39°22' E 002°54'0 0.0
2017-Aug-12 13:44N 39°22' E 002°54'0 0.0
2017-Aug-12 13:25N 39°22' E 002°54'0 0.0
2017-Aug-12 12:55N 39°22' E 002°54'0 0.0
2017-Aug-12 12:28N 39°22' E 002°54'0 0.0
2017-Aug-12 11:56N 39°22' E 002°54'0 0.0
2017-Aug-12 11:23N 39°22' E 002°54'0 0.0
2017-Aug-12 10:49N 39°22' E 002°54'0 0.0
2017-Aug-12 10:25N 39°22' E 002°54'0 0.0
2017-Aug-12 09:55N 39°22' E 002°54'0 0.0
2017-Aug-12 09:30N 39°22' E 002°54'1 1.7
2017-Aug-12 09:00N 39°22' E 002°53'2 3.8
2017-Aug-12 08:27N 39°22' E 002°50'0 0.0
2017-Aug-12 07:57N 39°21' E 002°50'0 0.0
2017-Aug-12 07:27N 39°21' E 002°50'0 0.0
2017-Aug-12 06:39N 39°21' E 002°50'0 0.0
2017-Aug-12 06:27N 39°21' E 002°50'0 0.0
2017-Aug-12 05:57N 39°21' E 002°50'0 0.0
2017-Aug-12 05:27N 39°21' E 002°50'0 0.0
2017-Aug-12 04:57N 39°21' E 002°50'0 0.0
2017-Aug-12 04:27N 39°21' E 002°50'0 0.0
2017-Aug-12 03:57N 39°21' E 002°50'0 0.0
2017-Aug-12 03:21N 39°21' E 002°50'0 0.0
2017-Aug-12 01:57N 39°21' E 002°50'0 0.0
2017-Aug-12 01:27N 39°21' E 002°50'0 0.0
2017-Aug-12 00:57N 39°21' E 002°50'0 0.0
2017-Aug-12 00:21N 39°21' E 002°50'0 0.0
2017-Aug-11 23:57N 39°21' E 002°50'0 0.0
2017-Aug-11 23:27N 39°21' E 002°50'0 0.0
2017-Aug-11 22:57N 39°21' E 002°50'0 0.0
2017-Aug-11 22:27N 39°21' E 002°50'0 0.0
2017-Aug-11 21:51N 39°21' E 002°50'0 0.0
2017-Aug-11 21:27N 39°21' E 002°50'0 0.0
2017-Aug-11 20:57N 39°21' E 002°50'0 0.0
2017-Aug-11 20:27N 39°22' E 002°50'0 0.0
2017-Aug-11 19:57N 39°22' E 002°50'0 0.0
2017-Aug-11 19:27N 39°21' E 002°50'0 0.0
2017-Aug-11 18:45N 39°22' E 002°50'1 4.2
2017-Aug-11 18:30N 39°21' E 002°49'510.0
2017-Aug-11 18:00N 39°25' E 002°44'2 4.3
2017-Aug-11 17:30N 39°27' E 002°44'0 0.1
2017-Aug-11 16:49N 39°27' E 002°44'2 4.8
2017-Aug-11 16:30N 39°28' E 002°43'510.1
2017-Aug-11 16:00N 39°30' E 002°37'2 4.5
2017-Aug-11 15:29N 39°32' E 002°35'0 0.0
2017-Aug-11 14:56N 39°32' E 002°35'0 0.0
2017-Aug-11 14:00N 39°32' E 002°35'2 3.3
2017-Aug-11 13:30N 39°30' E 002°34'4 8.6
2017-Aug-11 13:00N 39°27' E 002°31'4 8.9
2017-Aug-11 12:30N 39°30' E 002°26'3 0.3
2017-Aug-11 03:48N 39°32' E 002°25'0 0.0
2017-Aug-10 12:36N 39°32' E 002°25'0 0.1
2017-Aug-10 12:30N 39°32' E 002°25'0 0.0
2017-Aug-10 07:36N 39°32' E 002°25'0 0.1
2017-Aug-10 07:30N 39°32' E 002°25'0 0.0
2017-Aug-10 05:24N 39°32' E 002°25'0 0.0
2017-Aug-09 05:42N 39°32' E 002°25'0 0.0
2017-Aug-09 03:18N 39°32' E 002°25'0 0.0
2017-Aug-09 02:30N 39°32' E 002°25'0 0.0
2017-Aug-09 01:06N 39°32' E 002°25'0 0.0
2017-Aug-08 23:00N 39°32' E 002°25'0 0.0
2017-Aug-08 13:24N 39°32' E 002°25'1 1.4
2017-Aug-08 13:00N 39°32' E 002°25'1 0.1
2017-Aug-07 18:58N 39°31' E 002°23'610.0
2017-Aug-07 18:20N 39°27' E 002°30'3 8.8
2017-Aug-07 18:00N 39°29' E 002°33'3 5.4
2017-Aug-07 17:30N 39°32' E 002°33'0 0.0
2017-Aug-07 17:00N 39°32' E 002°33'0 0.0
2017-Aug-07 16:31N 39°32' E 002°33'0 0.0
2017-Aug-07 16:00N 39°32' E 002°33'0 0.1
2017-Aug-07 15:31N 39°32' E 002°34'4 7.5
2017-Aug-07 15:00N 39°32' E 002°38'1 2.0
2017-Aug-07 14:29N 39°33' E 002°38'0 0.0
2017-Aug-07 13:59N 39°33' E 002°38'0 0.0
2017-Aug-07 13:29N 39°33' E 002°38'0 0.0
2017-Aug-07 12:59N 39°33' E 002°38'0 0.0
2017-Aug-07 12:29N 39°33' E 002°38'0 0.0
2017-Aug-07 11:59N 39°33' E 002°38'0 0.0
2017-Aug-07 11:29N 39°33' E 002°38'0 0.0
2017-Aug-07 10:59N 39°33' E 002°38'0 0.0
2017-Aug-07 10:29N 39°33' E 002°38'0 0.0
2017-Aug-07 09:59N 39°33' E 002°38'0 0.0
2017-Aug-07 09:29N 39°33' E 002°38'0 0.0
2017-Aug-07 08:59N 39°33' E 002°38'0 0.0
2017-Aug-07 08:29N 39°33' E 002°38'0 0.0
2017-Aug-07 07:59N 39°33' E 002°38'0 0.0
2017-Aug-07 07:29N 39°33' E 002°38'0 0.0
2017-Aug-07 06:59N 39°33' E 002°38'0 0.0
2017-Aug-07 06:29N 39°33' E 002°38'0 0.0
2017-Aug-07 05:59N 39°33' E 002°38'0 0.0
2017-Aug-07 05:29N 39°33' E 002°38'0 0.0
2017-Aug-07 04:59N 39°33' E 002°38'0 0.0
2017-Aug-07 04:29N 39°33' E 002°38'0 0.0
2017-Aug-07 03:59N 39°33' E 002°38'0 0.0
2017-Aug-07 03:29N 39°33' E 002°38'0 0.0
2017-Aug-07 02:59N 39°33' E 002°38'0 0.0
2017-Aug-07 02:29N 39°33' E 002°38'0 0.0
2017-Aug-07 01:59N 39°33' E 002°38'0 0.0
2017-Aug-07 01:29N 39°33' E 002°38'0 0.0
2017-Aug-07 00:59N 39°33' E 002°38'0 0.0
2017-Aug-07 00:29N 39°33' E 002°38'0 0.0
2017-Aug-06 23:59N 39°33' E 002°38'0 0.0
2017-Aug-06 23:29N 39°33' E 002°38'0 0.0
2017-Aug-06 22:59N 39°33' E 002°38'0 0.0
2017-Aug-06 22:29N 39°33' E 002°38'0 0.0
2017-Aug-06 22:00N 39°33' E 002°38'0 0.0
2017-Aug-06 21:29N 39°33' E 002°38'0 0.0
2017-Aug-06 20:59N 39°33' E 002°38'0 0.0
2017-Aug-06 20:29N 39°33' E 002°38'0 0.0
2017-Aug-06 19:59N 39°33' E 002°38'0 0.0
2017-Aug-06 19:29N 39°33' E 002°38'0 0.0
2017-Aug-06 18:59N 39°33' E 002°38'0 0.0
2017-Aug-06 18:29N 39°33' E 002°38'0 0.0
2017-Aug-06 17:59N 39°33' E 002°38'0 0.0
2017-Aug-06 17:29N 39°33' E 002°38'0 0.0
2017-Aug-06 16:59N 39°33' E 002°38'0 0.0
2017-Aug-06 16:29N 39°33' E 002°38'0 0.0
2017-Aug-06 15:59N 39°33' E 002°38'0 0.0
2017-Aug-06 15:29N 39°33' E 002°38'0 0.0
2017-Aug-06 14:59N 39°33' E 002°38'0 0.0
2017-Aug-06 14:29N 39°33' E 002°38'0 0.0
2017-Aug-06 13:29N 39°33' E 002°38'0 0.0
2017-Aug-06 12:59N 39°33' E 002°38'0 0.0
2017-Aug-06 12:29N 39°33' E 002°38'0 0.0
2017-Aug-06 11:59N 39°33' E 002°38'0 0.0
2017-Aug-06 11:29N 39°33' E 002°38'0 0.0
2017-Aug-06 10:59N 39°33' E 002°38'0 0.0
2017-Aug-06 10:29N 39°33' E 002°38'0 0.0
2017-Aug-06 09:59N 39°33' E 002°38'0 0.0
2017-Aug-06 09:29N 39°33' E 002°38'0 0.0
2017-Aug-06 08:59N 39°33' E 002°38'0 0.0
2017-Aug-06 08:29N 39°33' E 002°38'0 0.0
2017-Aug-06 07:59N 39°33' E 002°38'0 0.0
2017-Aug-06 07:29N 39°33' E 002°38'0 0.0
2017-Aug-06 06:59N 39°33' E 002°38'0 0.0
2017-Aug-06 06:29N 39°33' E 002°38'0 0.0
2017-Aug-06 05:56N 39°33' E 002°38'0 0.0
2017-Aug-06 05:29N 39°33' E 002°38'0 0.0
2017-Aug-06 04:59N 39°33' E 002°38'0 0.0
2017-Aug-06 04:29N 39°33' E 002°38'0 0.0
2017-Aug-06 03:59N 39°33' E 002°38'0 0.0
2017-Aug-06 03:29N 39°33' E 002°38'0 0.0
2017-Aug-06 02:59N 39°33' E 002°38'0 0.0
2017-Aug-06 02:29N 39°33' E 002°38'0 0.0
2017-Aug-06 01:59N 39°33' E 002°38'0 0.0
2017-Aug-06 01:20N 39°33' E 002°38'0 0.0
2017-Aug-06 00:59N 39°33' E 002°38'0 0.0
2017-Aug-06 00:29N 39°33' E 002°38'0 0.0
2017-Aug-05 23:59N 39°33' E 002°38'0 0.0
2017-Aug-05 23:29N 39°33' E 002°38'0 0.0
2017-Aug-05 22:59N 39°33' E 002°38'0 0.0
2017-Aug-05 22:29N 39°33' E 002°38'0 0.0
2017-Aug-05 21:58N 39°33' E 002°38'0 0.0
2017-Aug-05 21:28N 39°33' E 002°38'0 0.0
2017-Aug-05 20:58N 39°33' E 002°38'0 0.0
2017-Aug-05 20:28N 39°33' E 002°38'0 0.0
2017-Aug-05 19:58N 39°33' E 002°38'0 0.0
2017-Aug-05 19:28N 39°33' E 002°38'0 0.0
2017-Aug-05 18:58N 39°33' E 002°38'0 0.0
2017-Aug-05 18:28N 39°33' E 002°38'0 0.0
2017-Aug-05 17:58N 39°33' E 002°38'0 0.0
2017-Aug-05 17:28N 39°33' E 002°38'0 0.0
2017-Aug-05 16:58N 39°33' E 002°38'0 0.0
2017-Aug-05 16:28N 39°33' E 002°38'0 0.0
2017-Aug-05 15:58N 39°33' E 002°38'0 0.0
2017-Aug-05 15:28N 39°33' E 002°38'0 0.0
2017-Aug-05 14:58N 39°33' E 002°38'0 0.0
2017-Aug-05 14:28N 39°33' E 002°38'0 0.0
2017-Aug-05 13:58N 39°33' E 002°38'0 0.0
2017-Aug-05 13:28N 39°33' E 002°38'0 0.0
2017-Aug-05 12:58N 39°33' E 002°38'0 0.0
2017-Aug-05 12:28N 39°33' E 002°38'0 0.0
2017-Aug-05 11:58N 39°33' E 002°38'0 0.0
2017-Aug-05 11:28N 39°33' E 002°38'0 0.0
2017-Aug-05 10:58N 39°33' E 002°38'0 0.0
2017-Aug-05 10:28N 39°33' E 002°38'0 0.0
2017-Aug-05 09:58N 39°33' E 002°38'0 0.0
2017-Aug-05 09:28N 39°33' E 002°38'0 0.0
2017-Aug-05 08:58N 39°33' E 002°38'0 0.0
2017-Aug-05 08:28N 39°33' E 002°38'0 0.0
2017-Aug-05 07:58N 39°33' E 002°38'0 0.0
2017-Aug-05 07:28N 39°33' E 002°38'0 0.0
2017-Aug-05 06:58N 39°33' E 002°38'  
Track history (hours):
 
Tides and Currents Weather Stations Pressure Air Temp Water Temp Dewpoint Dewpoint Depression Visibility Wind Speed Wind Dir Waves Ship Positions

Northlander

Last reported at 2017-Aug-15 06:29 UTC. Time now 2017-Aug-21 04:29 UTC.
Position N 41°07' E 009°33'.

Length 38 m; draft 2.5 m.

Type: Pleasure craft. MMSI: 319078000.

Date/timePositionNaut miles runAvg speedWind from/ knotsBaromVisibWave heightAir tempDewpointWater temp
2017-Aug-15 06:29N 41°07' E 009°33'118 9.0
2017-Aug-14 17:25N 40°41' E 007°01'410.1
2017-Aug-14 17:00N 40°39' E 006°56'510.1
2017-Aug-14 16:30N 40°37' E 006°50'510.3
2017-Aug-14 16:00N 40°35' E 006°44'610.6
2017-Aug-14 15:29N 40°33' E 006°37'510.5
2017-Aug-14 15:00N 40°30' E 006°31'91 9.8
2017-Aug-14 05:43N 39°52' E 004°44'5610.2
2017-Aug-14 00:13N 39°27' E 003°38'4 9.9
2017-Aug-13 23:48N 39°26' E 003°33'3 9.7
2017-Aug-13 23:26N 39°24' E 003°29'4 9.8
2017-Aug-13 23:00N 39°22' E 003°24'5 9.9
2017-Aug-13 22:30N 39°20' E 003°18'510.0
2017-Aug-13 22:00N 39°18' E 003°12'5 9.6
2017-Aug-13 21:30N 39°16' E 003°07'4 8.9
2017-Aug-13 21:00N 39°16' E 003°01'5 9.2
2017-Aug-13 20:30N 39°20' E 002°58'1 1.3
2017-Aug-13 19:55N 39°21' E 002°59'0 0.0
2017-Aug-13 19:25N 39°21' E 002°59'0 0.0
2017-Aug-13 18:55N 39°21' E 002°59'0 0.0
2017-Aug-13 18:25N 39°21' E 002°59'0 0.0
2017-Aug-13 17:58N 39°21' E 002°59'0 0.0
2017-Aug-13 17:28N 39°21' E 002°59'0 0.0
2017-Aug-13 16:55N 39°21' E 002°59'0 0.0
2017-Aug-13 16:28N 39°21' E 002°59'0 0.0
2017-Aug-13 15:58N 39°21' E 002°59'0 0.0
2017-Aug-13 15:28N 39°21' E 002°59'0 0.0
2017-Aug-13 14:58N 39°21' E 002°59'0 0.0
2017-Aug-13 14:28N 39°21' E 002°59'0 0.0
2017-Aug-13 13:52N 39°21' E 002°59'0 0.0
2017-Aug-13 13:28N 39°21' E 002°59'0 0.1
2017-Aug-13 12:58N 39°21' E 002°59'2 5.2
2017-Aug-13 12:30N 39°21' E 002°55'1 1.5
2017-Aug-13 11:32N 39°22' E 002°54'0 0.1
2017-Aug-13 11:26N 39°22' E 002°54'0 0.0
2017-Aug-13 10:50N 39°22' E 002°54'0 0.0
2017-Aug-13 10:20N 39°22' E 002°54'0 0.0
2017-Aug-13 09:55N 39°22' E 002°54'0 0.1
2017-Aug-13 09:26N 39°22' E 002°54'0 0.0
2017-Aug-13 08:59N 39°22' E 002°54'0 0.1
2017-Aug-13 08:26N 39°22' E 002°54'0 0.0
2017-Aug-13 07:59N 39°22' E 002°54'0 0.0
2017-Aug-13 07:20N 39°22' E 002°54'0 0.0
2017-Aug-12 18:37N 39°22' E 002°54'0 0.0
2017-Aug-12 18:20N 39°22' E 002°54'0 0.0
2017-Aug-12 17:56N 39°22' E 002°54'0 0.0
2017-Aug-12 16:43N 39°22' E 002°54'0 0.0
2017-Aug-12 16:26N 39°22' E 002°54'0 0.0
2017-Aug-12 15:44N 39°22' E 002°54'0 0.0
2017-Aug-12 15:29N 39°22' E 002°54'0 0.0
2017-Aug-12 14:55N 39°22' E 002°54'0 0.0
2017-Aug-12 14:25N 39°22' E 002°54'0 0.0
2017-Aug-12 13:44N 39°22' E 002°54'0 0.0
2017-Aug-12 13:25N 39°22' E 002°54'0 0.0
2017-Aug-12 12:55N 39°22' E 002°54'0 0.0
2017-Aug-12 12:28N 39°22' E 002°54'0 0.0
2017-Aug-12 11:56N 39°22' E 002°54'0 0.0
2017-Aug-12 11:23N 39°22' E 002°54'0 0.0
2017-Aug-12 10:49N 39°22' E 002°54'0 0.0
2017-Aug-12 10:25N 39°22' E 002°54'0 0.0
2017-Aug-12 09:55N 39°22' E 002°54'0 0.0
2017-Aug-12 09:30N 39°22' E 002°54'1 1.7
2017-Aug-12 09:00N 39°22' E 002°53'2 3.8
2017-Aug-12 08:27N 39°22' E 002°50'0 0.0
2017-Aug-12 07:57N 39°21' E 002°50'0 0.0
2017-Aug-12 07:27N 39°21' E 002°50'0 0.0
2017-Aug-12 06:39N 39°21' E 002°50'0 0.0
2017-Aug-12 06:27N 39°21' E 002°50'0 0.0
2017-Aug-12 05:57N 39°21' E 002°50'0 0.0
2017-Aug-12 05:27N 39°21' E 002°50'0 0.0
2017-Aug-12 04:57N 39°21' E 002°50'0 0.0
2017-Aug-12 04:27N 39°21' E 002°50'0 0.0
2017-Aug-12 03:57N 39°21' E 002°50'0 0.0
2017-Aug-12 03:21N 39°21' E 002°50'0 0.0
2017-Aug-12 01:57N 39°21' E 002°50'0 0.0
2017-Aug-12 01:27N 39°21' E 002°50'0 0.0
2017-Aug-12 00:57N 39°21' E 002°50'0 0.0
2017-Aug-12 00:21N 39°21' E 002°50'0 0.0
2017-Aug-11 23:57N 39°21' E 002°50'0 0.0
2017-Aug-11 23:27N 39°21' E 002°50'0 0.0
2017-Aug-11 22:57N 39°21' E 002°50'0 0.0
2017-Aug-11 22:27N 39°21' E 002°50'0 0.0
2017-Aug-11 21:51N 39°21' E 002°50'0 0.0
2017-Aug-11 21:27N 39°21' E 002°50'0 0.0
2017-Aug-11 20:57N 39°21' E 002°50'0 0.0
2017-Aug-11 20:27N 39°22' E 002°50'0 0.0
2017-Aug-11 19:57N 39°22' E 002°50'0 0.0
2017-Aug-11 19:27N 39°21' E 002°50'0 0.0
2017-Aug-11 18:45N 39°22' E 002°50'1 4.2
2017-Aug-11 18:30N 39°21' E 002°49'510.0
2017-Aug-11 18:00N 39°25' E 002°44'2 4.3
2017-Aug-11 17:30N 39°27' E 002°44'0 0.1
2017-Aug-11 16:49N 39°27' E 002°44'2 4.8
2017-Aug-11 16:30N 39°28' E 002°43'510.1
2017-Aug-11 16:00N 39°30' E 002°37'2 4.5
2017-Aug-11 15:29N 39°32' E 002°35'0 0.0
2017-Aug-11 14:56N 39°32' E 002°35'0 0.0
2017-Aug-11 14:00N 39°32' E 002°35'2 3.3
2017-Aug-11 13:30N 39°30' E 002°34'4 8.6
2017-Aug-11 13:00N 39°27' E 002°31'4 8.9
2017-Aug-11 12:30N 39°30' E 002°26'3 0.3
2017-Aug-11 03:48N 39°32' E 002°25'0 0.0
2017-Aug-10 12:36N 39°32' E 002°25'0 0.1
2017-Aug-10 12:30N 39°32' E 002°25'0 0.0
2017-Aug-10 07:36N 39°32' E 002°25'0 0.1
2017-Aug-10 07:30N 39°32' E 002°25'0 0.0
2017-Aug-10 05:24N 39°32' E 002°25'0 0.0
2017-Aug-09 05:42N 39°32' E 002°25'0 0.0
2017-Aug-09 03:18N 39°32' E 002°25'0 0.0
2017-Aug-09 02:30N 39°32' E 002°25'0 0.0
2017-Aug-09 01:06N 39°32' E 002°25'0 0.0
2017-Aug-08 23:00N 39°32' E 002°25'0 0.0
2017-Aug-08 13:24N 39°32' E 002°25'1 1.4
2017-Aug-08 13:00N 39°32' E 002°25'1 0.1
2017-Aug-07 18:58N 39°31' E 002°23'610.0
2017-Aug-07 18:20N 39°27' E 002°30'3 8.8
2017-Aug-07 18:00N 39°29' E 002°33'3 5.4
2017-Aug-07 17:30N 39°32' E 002°33'0 0.0
2017-Aug-07 17:00N 39°32' E 002°33'0 0.0
2017-Aug-07 16:31N 39°32' E 002°33'0 0.0
2017-Aug-07 16:00N 39°32' E 002°33'0 0.1
2017-Aug-07 15:31N 39°32' E 002°34'4 7.5
2017-Aug-07 15:00N 39°32' E 002°38'1 2.0
2017-Aug-07 14:29N 39°33' E 002°38'0 0.0
2017-Aug-07 13:59N 39°33' E 002°38'0 0.0
2017-Aug-07 13:29N 39°33' E 002°38'0 0.0
2017-Aug-07 12:59N 39°33' E 002°38'0 0.0
2017-Aug-07 12:29N 39°33' E 002°38'0 0.0
2017-Aug-07 11:59N 39°33' E 002°38'0 0.0
2017-Aug-07 11:29N 39°33' E 002°38'0 0.0
2017-Aug-07 10:59N 39°33' E 002°38'0 0.0
2017-Aug-07 10:29N 39°33' E 002°38'0 0.0
2017-Aug-07 09:59N 39°33' E 002°38'0 0.0
2017-Aug-07 09:29N 39°33' E 002°38'0 0.0
2017-Aug-07 08:59N 39°33' E 002°38'0 0.0
2017-Aug-07 08:29N 39°33' E 002°38'0 0.0
2017-Aug-07 07:59N 39°33' E 002°38'0 0.0
2017-Aug-07 07:29N 39°33' E 002°38'0 0.0
2017-Aug-07 06:59N 39°33' E 002°38'0 0.0
2017-Aug-07 06:29N 39°33' E 002°38'0 0.0
2017-Aug-07 05:59N 39°33' E 002°38'0 0.0
2017-Aug-07 05:29N 39°33' E 002°38'0 0.0
2017-Aug-07 04:59N 39°33' E 002°38'0 0.0
2017-Aug-07 04:29N 39°33' E 002°38'0 0.0
2017-Aug-07 03:59N 39°33' E 002°38'0 0.0
2017-Aug-07 03:29N 39°33' E 002°38'0 0.0
2017-Aug-07 02:59N 39°33' E 002°38'0 0.0
2017-Aug-07 02:29N 39°33' E 002°38'0 0.0
2017-Aug-07 01:59N 39°33' E 002°38'0 0.0
2017-Aug-07 01:29N 39°33' E 002°38'0 0.0
2017-Aug-07 00:59N 39°33' E 002°38'0 0.0
2017-Aug-07 00:29N 39°33' E 002°38'0 0.0
2017-Aug-06 23:59N 39°33' E 002°38'0 0.0
2017-Aug-06 23:29N 39°33' E 002°38'0 0.0
2017-Aug-06 22:59N 39°33' E 002°38'0 0.0
2017-Aug-06 22:29N 39°33' E 002°38'0 0.0
2017-Aug-06 22:00N 39°33' E 002°38'0 0.0
2017-Aug-06 21:29N 39°33' E 002°38'0 0.0
2017-Aug-06 20:59N 39°33' E 002°38'0 0.0
2017-Aug-06 20:29N 39°33' E 002°38'0 0.0
2017-Aug-06 19:59N 39°33' E 002°38'0 0.0
2017-Aug-06 19:29N 39°33' E 002°38'0 0.0
2017-Aug-06 18:59N 39°33' E 002°38'0 0.0
2017-Aug-06 18:29N 39°33' E 002°38'0 0.0
2017-Aug-06 17:59N 39°33' E 002°38'0 0.0
2017-Aug-06 17:29N 39°33' E 002°38'0 0.0
2017-Aug-06 16:59N 39°33' E 002°38'0 0.0
2017-Aug-06 16:29N 39°33' E 002°38'0 0.0
2017-Aug-06 15:59N 39°33' E 002°38'0 0.0
2017-Aug-06 15:29N 39°33' E 002°38'0 0.0
2017-Aug-06 14:59N 39°33' E 002°38'0 0.0
2017-Aug-06 14:29N 39°33' E 002°38'0 0.0
2017-Aug-06 13:29N 39°33' E 002°38'0 0.0
2017-Aug-06 12:59N 39°33' E 002°38'0 0.0
2017-Aug-06 12:29N 39°33' E 002°38'0 0.0
2017-Aug-06 11:59N 39°33' E 002°38'0 0.0
2017-Aug-06 11:29N 39°33' E 002°38'0 0.0
2017-Aug-06 10:59N 39°33' E 002°38'0 0.0
2017-Aug-06 10:29N 39°33' E 002°38'0 0.0
2017-Aug-06 09:59N 39°33' E 002°38'0 0.0
2017-Aug-06 09:29N 39°33' E 002°38'0 0.0
2017-Aug-06 08:59N 39°33' E 002°38'0 0.0
2017-Aug-06 08:29N 39°33' E 002°38'0 0.0
2017-Aug-06 07:59N 39°33' E 002°38'0 0.0
2017-Aug-06 07:29N 39°33' E 002°38'0 0.0
2017-Aug-06 06:59N 39°33' E 002°38'0 0.0
2017-Aug-06 06:29N 39°33' E 002°38'0 0.0
2017-Aug-06 05:56N 39°33' E 002°38'0 0.0
2017-Aug-06 05:29N 39°33' E 002°38'0 0.0
2017-Aug-06 04:59N 39°33' E 002°38'0 0.0
2017-Aug-06 04:29N 39°33' E 002°38'0 0.0
2017-Aug-06 03:59N 39°33' E 002°38'0 0.0
2017-Aug-06 03:29N 39°33' E 002°38'0 0.0
2017-Aug-06 02:59N 39°33' E 002°38'0 0.0
2017-Aug-06 02:29N 39°33' E 002°38'0 0.0
2017-Aug-06 01:59N 39°33' E 002°38'0 0.0
2017-Aug-06 01:20N 39°33' E 002°38'0 0.0
2017-Aug-06 00:59N 39°33' E 002°38'0 0.0
2017-Aug-06 00:29N 39°33' E 002°38'0 0.0
2017-Aug-05 23:59N 39°33' E 002°38'0 0.0
2017-Aug-05 23:29N 39°33' E 002°38'0 0.0
2017-Aug-05 22:59N 39°33' E 002°38'0 0.0
2017-Aug-05 22:29N 39°33' E 002°38'0 0.0
2017-Aug-05 21:58N 39°33' E 002°38'0 0.0
2017-Aug-05 21:28N 39°33' E 002°38'0 0.0
2017-Aug-05 20:58N 39°33' E 002°38'0 0.0
2017-Aug-05 20:28N 39°33' E 002°38'0 0.0
2017-Aug-05 19:58N 39°33' E 002°38'0 0.0
2017-Aug-05 19:28N 39°33' E 002°38'0 0.0
2017-Aug-05 18:58N 39°33' E 002°38'0 0.0
2017-Aug-05 18:28N 39°33' E 002°38'0 0.0
2017-Aug-05 17:58N 39°33' E 002°38'0 0.0
2017-Aug-05 17:28N 39°33' E 002°38'0 0.0
2017-Aug-05 16:58N 39°33' E 002°38'0 0.0
2017-Aug-05 16:28N 39°33' E 002°38'0 0.0
2017-Aug-05 15:58N 39°33' E 002°38'0 0.0
2017-Aug-05 15:28N 39°33' E 002°38'0 0.0
2017-Aug-05 14:58N 39°33' E 002°38'0 0.0
2017-Aug-05 14:28N 39°33' E 002°38'0 0.0
2017-Aug-05 13:58N 39°33' E 002°38'0 0.0
2017-Aug-05 13:28N 39°33' E 002°38'0 0.0
2017-Aug-05 12:58N 39°33' E 002°38'0 0.0
2017-Aug-05 12:28N 39°33' E 002°38'0 0.0
2017-Aug-05 11:58N 39°33' E 002°38'0 0.0
2017-Aug-05 11:28N 39°33' E 002°38'0 0.0
2017-Aug-05 10:58N 39°33' E 002°38'0 0.0
2017-Aug-05 10:28N 39°33' E 002°38'0 0.0
2017-Aug-05 09:58N 39°33' E 002°38'0 0.0
2017-Aug-05 09:28N 39°33' E 002°38'0 0.0
2017-Aug-05 08:58N 39°33' E 002°38'0 0.0
2017-Aug-05 08:28N 39°33' E 002°38'0 0.0
2017-Aug-05 07:58N 39°33' E 002°38'0 0.0
2017-Aug-05 07:28N 39°33' E 002°38'0 0.0
2017-Aug-05 06:58N 39°33' E 002°38'  

Dump ship's entire track history